createdAt,value
2023-06-11T00:02:02.483Z,6.60
2023-06-11T00:04:35.962Z,6.20
2023-06-11T00:07:09.166Z,6.47
2023-06-11T00:09:48.029Z,6.97
2023-06-11T00:12:25.460Z,6.30
2023-06-11T00:15:03.397Z,5.63
2023-06-11T00:17:34.652Z,6.23
2023-06-11T00:20:11.137Z,5.47
2023-06-11T00:22:45.132Z,6.70
2023-06-11T00:25:15.080Z,5.70
2023-06-11T00:27:51.153Z,5.80
2023-06-11T00:30:21.854Z,5.90
2023-06-11T00:32:59.332Z,6.13
2023-06-11T00:35:30.053Z,5.93
2023-06-11T00:37:59.029Z,6.30
2023-06-11T00:40:28.621Z,5.73
2023-06-11T00:43:00.588Z,6.07
2023-06-11T00:45:34.056Z,6.27
2023-06-11T00:48:05.634Z,6.30
2023-06-11T00:50:46.570Z,6.03
2023-06-11T00:53:18.678Z,6.43
2023-06-11T00:55:50.864Z,5.60
2023-06-11T00:58:23.263Z,6.40
2023-06-11T01:00:58.996Z,6.23
2023-06-11T01:03:29.054Z,6.60
2023-06-11T01:06:05.489Z,6.00
2023-06-11T01:08:40.141Z,5.83
2023-06-11T01:11:15.069Z,6.07
2023-06-11T01:13:50.304Z,5.40
2023-06-11T01:16:29.393Z,5.87
2023-06-11T01:19:22.487Z,6.13
2023-06-11T01:22:00.364Z,6.17
2023-06-11T01:24:48.620Z,6.20
2023-06-11T01:27:24.495Z,6.10
2023-06-11T01:30:03.914Z,6.87
2023-06-11T01:32:39.468Z,6.53
2023-06-11T01:35:11.266Z,6.87
2023-06-11T01:37:56.638Z,6.30
2023-06-11T01:40:34.041Z,6.50
2023-06-11T01:43:04.626Z,6.43
2023-06-11T01:45:38.349Z,6.10
2023-06-11T01:48:09.748Z,5.83
2023-06-11T01:50:42.937Z,6.30
2023-06-11T01:53:21.974Z,6.13
2023-06-11T01:55:51.416Z,6.70
2023-06-11T01:58:19.850Z,7.00
2023-06-11T02:00:52.688Z,6.40
2023-06-11T02:03:22.389Z,7.03
2023-06-11T02:05:52.831Z,6.57
2023-06-11T02:08:21.852Z,6.80
2023-06-11T02:10:52.995Z,7.87
2023-06-11T02:13:21.025Z,6.77
2023-06-11T02:16:01.750Z,6.90
2023-06-11T02:18:33.903Z,6.73
2023-06-11T02:21:02.055Z,6.00
2023-06-11T02:23:31.776Z,6.40
2023-06-11T02:26:00.279Z,5.77
2023-06-11T02:28:35.719Z,6.33
2023-06-11T02:31:14.064Z,6.43
2023-06-11T02:33:43.676Z,6.40
2023-06-11T02:36:13.588Z,7.03
2023-06-11T02:38:50.845Z,6.57
2023-06-11T02:41:19.869Z,5.73
2023-06-11T02:43:57.590Z,6.63
2023-06-11T02:46:29.546Z,6.27
2023-06-11T02:49:02.387Z,6.93
2023-06-11T02:51:31.112Z,5.97
2023-06-11T02:53:59.341Z,6.37
2023-06-11T02:56:27.795Z,6.20
2023-06-11T02:58:59.378Z,6.50
2023-06-11T03:01:31.804Z,6.30
2023-06-11T03:04:01.087Z,6.03
2023-06-11T03:06:33.001Z,5.97
2023-06-11T03:09:16.028Z,7.10
2023-06-11T03:11:50.418Z,5.97
2023-06-11T03:14:20.746Z,6.53
2023-06-11T03:16:52.718Z,6.13
2023-06-11T03:19:22.321Z,6.00
2023-06-11T03:21:55.096Z,5.93
2023-06-11T03:24:25.897Z,6.37
2023-06-11T03:27:00.937Z,6.00
2023-06-11T03:29:32.177Z,5.57
2023-06-11T03:32:05.202Z,5.93
2023-06-11T03:34:34.925Z,6.93
2023-06-11T03:37:05.682Z,6.57
2023-06-11T03:39:35.018Z,6.33
2023-06-11T03:42:07.256Z,7.33
2023-06-11T03:44:37.179Z,5.60
2023-06-11T03:47:14.033Z,6.60
2023-06-11T03:49:44.033Z,6.80
2023-06-11T03:52:13.736Z,6.17
2023-06-11T03:54:42.204Z,6.47
2023-06-11T03:57:11.426Z,5.57
2023-06-11T03:59:41.028Z,6.50
2023-06-11T04:02:20.772Z,7.50
2023-06-11T04:04:58.512Z,5.77
2023-06-11T04:07:29.305Z,5.30
2023-06-11T04:09:58.542Z,7.00
2023-06-11T04:12:32.370Z,5.93
2023-06-11T04:15:06.636Z,6.70
2023-06-11T04:17:37.643Z,6.50
2023-06-11T04:20:08.926Z,6.27
2023-06-11T04:22:40.965Z,6.50
2023-06-11T04:25:12.959Z,6.53
2023-06-11T04:27:44.470Z,7.27
2023-06-11T04:30:15.143Z,6.67
2023-06-11T04:33:04.957Z,6.83
2023-06-11T04:35:43.036Z,6.13
2023-06-11T04:38:21.208Z,7.90
2023-06-11T04:40:55.683Z,7.10
2023-06-11T04:43:32.178Z,6.97
2023-06-11T04:46:01.998Z,6.73
2023-06-11T04:48:51.817Z,6.73
2023-06-11T04:51:21.696Z,6.77
2023-06-11T04:53:58.622Z,6.93
2023-06-11T04:56:28.357Z,7.17
2023-06-11T04:58:59.255Z,6.27
2023-06-11T05:01:33.322Z,7.50
2023-06-11T05:04:12.044Z,7.73
2023-06-11T05:06:45.883Z,6.50
2023-06-11T05:09:36.708Z,7.17
2023-06-11T05:12:13.719Z,6.97
2023-06-11T05:14:51.965Z,6.93
2023-06-11T05:17:22.534Z,7.90
2023-06-11T05:20:07.409Z,7.60
2023-06-11T05:22:39.258Z,6.80
2023-06-11T05:25:11.340Z,7.30
2023-06-11T05:27:51.003Z,6.57
2023-06-11T05:30:25.656Z,7.10
2023-06-11T05:32:59.002Z,7.90
2023-06-11T05:35:32.895Z,7.50
2023-06-11T05:38:05.088Z,8.03
2023-06-11T05:40:37.787Z,8.07
2023-06-11T05:43:07.806Z,8.13
2023-06-11T05:45:45.726Z,8.40
2023-06-11T05:48:16.493Z,7.40
2023-06-11T05:50:56.121Z,7.83
2023-06-11T05:53:28.445Z,8.30
2023-06-11T05:56:04.945Z,8.20
2023-06-11T05:58:38.235Z,8.03
2023-06-11T06:01:10.152Z,7.47
2023-06-11T06:03:43.247Z,7.87
2023-06-11T06:06:13.788Z,8.33
2023-06-11T06:08:48.701Z,8.60
2023-06-11T06:11:23.264Z,8.53
2023-06-11T06:13:57.676Z,8.90
2023-06-11T06:16:28.871Z,8.00
2023-06-11T06:19:09.027Z,7.63
2023-06-11T06:21:50.140Z,8.20
2023-06-11T06:24:21.995Z,7.63
2023-06-11T06:26:53.014Z,8.00
2023-06-11T06:29:22.116Z,8.20
2023-06-11T06:31:52.096Z,8.80
2023-06-11T06:34:21.570Z,8.40
2023-06-11T06:36:56.258Z,9.00
2023-06-11T06:39:26.382Z,9.90
2023-06-11T06:42:04.045Z,9.00
2023-06-11T06:44:56.436Z,8.70
2023-06-11T06:47:29.873Z,8.70
2023-06-11T06:50:20.036Z,8.00
2023-06-11T06:53:00.747Z,8.50
2023-06-11T06:55:29.937Z,9.57
2023-06-11T06:58:20.636Z,8.30
2023-06-11T07:00:50.039Z,9.63
2023-06-11T07:03:19.921Z,8.73
2023-06-11T07:05:51.845Z,8.60
2023-06-11T07:08:22.245Z,8.90
2023-06-11T07:10:56.565Z,8.67
2023-06-11T07:13:34.225Z,9.53
2023-06-11T07:16:06.680Z,8.93
2023-06-11T07:18:37.437Z,8.30
2023-06-11T07:21:08.051Z,8.60
2023-06-11T07:23:39.024Z,9.17
2023-06-11T07:26:20.733Z,8.70
2023-06-11T07:28:49.610Z,9.13
2023-06-11T07:31:19.981Z,8.90
2023-06-11T07:33:59.731Z,9.30
2023-06-11T07:36:29.126Z,8.80
2023-06-11T07:39:01.357Z,9.20
2023-06-11T07:41:30.630Z,9.23
2023-06-11T07:44:01.460Z,9.00
2023-06-11T07:46:30.800Z,9.73
2023-06-11T07:49:00.265Z,9.23
2023-06-11T07:51:28.407Z,8.93
2023-06-11T07:54:10.796Z,9.40
2023-06-11T07:56:44.020Z,8.30
2023-06-11T07:59:20.315Z,9.00
2023-06-11T08:01:50.609Z,8.30
2023-06-11T08:04:20.756Z,8.93
2023-06-11T08:06:50.857Z,8.43
2023-06-11T08:09:30.707Z,9.30
2023-06-11T08:12:00.668Z,8.60
2023-06-11T08:14:30.718Z,8.23
2023-06-11T08:17:02.256Z,8.70
2023-06-11T08:19:31.697Z,7.77
2023-06-11T08:22:02.993Z,8.57
2023-06-11T08:24:35.349Z,7.50
2023-06-11T08:27:15.289Z,8.40
2023-06-11T08:29:46.289Z,7.50
2023-06-11T08:32:16.971Z,8.47
2023-06-11T08:34:46.104Z,8.40
2023-06-11T08:37:16.481Z,8.03
2023-06-11T08:39:50.965Z,9.00
2023-06-11T08:42:30.800Z,8.67
2023-06-11T08:45:07.446Z,8.40
2023-06-11T08:47:40.313Z,8.53
2023-06-11T08:50:12.089Z,8.63
2023-06-11T08:52:44.426Z,8.00
2023-06-11T08:55:20.129Z,7.77
2023-06-11T08:57:48.959Z,7.97
2023-06-11T09:00:24.632Z,8.73
2023-06-11T09:02:53.953Z,9.07
2023-06-11T09:05:25.860Z,8.47
2023-06-11T09:07:57.066Z,8.60
2023-06-11T09:10:50.169Z,9.47
2023-06-11T09:13:21.427Z,8.97
2023-06-11T09:15:56.005Z,9.00
2023-06-11T09:18:27.348Z,8.73
2023-06-11T09:21:01.604Z,9.17
2023-06-11T09:23:36.866Z,8.53
2023-06-11T09:26:10.310Z,9.23
2023-06-11T09:28:50.539Z,8.93
2023-06-11T09:31:22.913Z,8.50
2023-06-11T09:33:57.843Z,8.93
2023-06-11T09:36:33.163Z,9.10
2023-06-11T09:39:02.337Z,9.07
2023-06-11T09:41:50.799Z,8.47
2023-06-11T09:44:28.551Z,9.00
2023-06-11T09:46:58.046Z,8.50
2023-06-11T09:49:27.994Z,9.27
2023-06-11T09:51:59.264Z,7.83
2023-06-11T09:54:27.654Z,8.67
2023-06-11T09:57:06.911Z,8.40
2023-06-11T09:59:39.294Z,8.67
2023-06-11T10:02:09.654Z,8.73
2023-06-11T10:04:42.189Z,9.77
2023-06-11T10:07:22.310Z,8.83
2023-06-11T10:09:53.864Z,7.57
2023-06-11T10:12:25.719Z,7.90
2023-06-11T10:14:58.051Z,8.30
2023-06-11T10:17:27.587Z,8.33
2023-06-11T10:20:01.034Z,8.50
2023-06-11T10:22:35.521Z,8.70
2023-06-11T10:25:06.413Z,8.47
2023-06-11T10:27:41.575Z,9.20
2023-06-11T10:30:19.221Z,9.10
2023-06-11T10:32:55.105Z,8.30
2023-06-11T10:35:30.234Z,9.60
2023-06-11T10:38:10.545Z,8.60
2023-06-11T10:40:40.667Z,8.77
2023-06-11T10:43:29.349Z,8.23
2023-06-11T10:46:05.157Z,8.07
2023-06-11T10:48:34.777Z,8.00
2023-06-11T10:51:07.021Z,7.30
2023-06-11T10:53:45.988Z,10.10
2023-06-11T10:56:18.547Z,9.47
2023-06-11T10:58:56.250Z,9.00
2023-06-11T11:01:24.616Z,8.97
2023-06-11T11:04:03.604Z,8.27
2023-06-11T11:06:40.621Z,9.80
2023-06-11T11:09:12.931Z,9.67
2023-06-11T11:11:44.659Z,9.20
2023-06-11T11:14:19.074Z,8.80
2023-06-11T11:16:50.056Z,9.17
2023-06-11T11:19:28.664Z,8.87
2023-06-11T11:22:04.958Z,9.80
2023-06-11T11:24:39.840Z,9.73
2023-06-11T11:27:14.669Z,10.43
2023-06-11T11:29:55.854Z,9.93
2023-06-11T11:32:24.774Z,9.17
2023-06-11T11:34:54.829Z,10.30
2023-06-11T11:37:24.015Z,10.60
2023-06-11T11:39:55.215Z,9.23
2023-06-11T11:42:34.888Z,9.30
2023-06-11T11:45:15.735Z,9.90
2023-06-11T11:47:47.664Z,10.80
2023-06-11T11:50:34.875Z,11.53
2023-06-11T11:53:07.624Z,10.30
2023-06-11T11:55:47.921Z,9.43
2023-06-11T11:58:29.304Z,9.37
2023-06-11T12:00:59.161Z,8.93
2023-06-11T12:03:38.390Z,8.87
2023-06-11T12:06:16.098Z,9.37
2023-06-11T12:08:47.660Z,9.33
2023-06-11T12:11:19.019Z,8.60
2023-06-11T12:13:55.955Z,9.00
2023-06-11T12:16:27.534Z,10.07
2023-06-11T12:19:10.592Z,9.70
2023-06-11T12:21:49.061Z,9.40
2023-06-11T12:24:20.585Z,8.77
2023-06-11T12:26:55.163Z,9.43
2023-06-11T12:29:26.871Z,8.60
2023-06-11T12:31:59.213Z,8.77
2023-06-11T12:34:34.643Z,9.53
2023-06-11T12:37:09.369Z,9.30
2023-06-11T12:39:44.692Z,8.70
2023-06-11T12:42:23.325Z,8.83
2023-06-11T12:44:54.315Z,8.67
2023-06-11T12:47:26.197Z,8.00
2023-06-11T12:49:58.048Z,8.30
2023-06-11T12:52:32.363Z,8.07
2023-06-11T12:55:10.263Z,8.57
2023-06-11T12:57:38.787Z,8.63
2023-06-11T13:00:17.227Z,8.70
2023-06-11T13:02:49.862Z,8.77
2023-06-11T13:05:22.845Z,7.90
2023-06-11T13:07:55.333Z,8.17
2023-06-11T13:10:28.118Z,8.67
2023-06-11T13:12:59.414Z,7.13
2023-06-11T13:15:28.695Z,8.03
2023-06-11T13:18:08.391Z,8.03
2023-06-11T13:20:46.485Z,8.13
2023-06-11T13:23:27.470Z,7.53
2023-06-11T13:25:59.485Z,7.23
2023-06-11T13:28:30.259Z,7.63
2023-06-11T13:31:01.776Z,8.00
2023-06-11T13:33:40.247Z,7.97
2023-06-11T13:36:13.407Z,8.10
2023-06-11T13:38:43.696Z,7.27
2023-06-11T13:41:15.728Z,6.97
2023-06-11T13:43:50.180Z,7.73
2023-06-11T13:46:21.448Z,7.90
2023-06-11T13:49:00.085Z,7.40
2023-06-11T13:51:31.944Z,7.47
2023-06-11T13:54:08.164Z,7.60
2023-06-11T13:56:37.842Z,6.97
2023-06-11T13:59:06.884Z,7.70
2023-06-11T14:01:43.022Z,7.37
2023-06-11T14:04:14.336Z,7.23
2023-06-11T14:06:47.517Z,7.40
2023-06-11T14:09:21.742Z,8.30
2023-06-11T14:11:51.137Z,7.90
2023-06-11T14:14:29.008Z,7.87
2023-06-11T14:16:59.975Z,7.60
2023-06-11T14:19:30.429Z,8.27
2023-06-11T14:22:02.250Z,7.27
2023-06-11T14:24:33.543Z,8.20
2023-06-11T14:27:03.250Z,8.03
2023-06-11T14:29:35.733Z,7.70
2023-06-11T14:32:07.653Z,7.80
2023-06-11T14:34:41.902Z,7.17
2023-06-11T14:37:20.209Z,7.40
2023-06-11T14:39:52.157Z,7.07
2023-06-11T14:42:24.239Z,6.77
2023-06-11T14:44:58.419Z,7.30
2023-06-11T14:47:32.978Z,7.10
2023-06-11T14:50:14.590Z,7.10
2023-06-11T14:52:48.466Z,8.20
2023-06-11T14:55:20.467Z,7.00
2023-06-11T14:57:53.064Z,6.87
2023-06-11T15:00:22.971Z,7.23
2023-06-11T15:02:54.356Z,8.07
2023-06-11T15:05:37.694Z,7.80
2023-06-11T15:08:08.778Z,7.00
2023-06-11T15:10:42.776Z,7.50
2023-06-11T15:13:14.335Z,6.97
2023-06-11T15:15:51.660Z,6.50
2023-06-11T15:18:22.583Z,6.83
2023-06-11T15:21:21.806Z,6.40
2023-06-11T15:24:01.746Z,7.00
2023-06-11T15:26:33.736Z,6.60
2023-06-11T15:29:10.914Z,6.80
2023-06-11T15:31:41.088Z,7.10
2023-06-11T15:34:14.094Z,7.77
2023-06-11T15:36:56.867Z,7.23
2023-06-11T15:39:27.751Z,7.30
2023-06-11T15:42:07.001Z,6.60
2023-06-11T15:44:37.815Z,7.10
2023-06-11T15:47:17.702Z,6.97
2023-06-11T15:49:56.237Z,7.13
2023-06-11T15:52:34.064Z,7.00
2023-06-11T15:55:03.745Z,6.93
2023-06-11T15:57:33.191Z,6.53
2023-06-11T16:00:05.214Z,6.80
2023-06-11T16:02:44.239Z,6.70
2023-06-11T16:05:20.207Z,7.20
2023-06-11T16:07:51.000Z,6.70
2023-06-11T16:10:34.746Z,7.10
2023-06-11T16:13:08.865Z,6.77
2023-06-11T16:15:47.742Z,6.70
2023-06-11T16:18:22.996Z,6.27
2023-06-11T16:21:02.649Z,6.90
2023-06-11T16:23:48.033Z,6.60
2023-06-11T16:26:17.644Z,5.80
2023-06-11T16:29:00.132Z,6.67
2023-06-11T16:31:30.443Z,7.00
2023-06-11T16:34:05.154Z,6.40
2023-06-11T16:36:35.182Z,5.93
2023-06-11T16:39:25.374Z,7.17
2023-06-11T16:41:57.563Z,6.20
2023-06-11T16:44:49.283Z,6.37
2023-06-11T16:47:32.014Z,6.33
2023-06-11T16:50:04.180Z,5.87
2023-06-11T16:52:38.368Z,7.70
2023-06-11T16:55:13.523Z,7.00
2023-06-11T16:57:45.104Z,6.00
2023-06-11T17:00:19.523Z,6.40
2023-06-11T17:02:51.202Z,5.70
2023-06-11T17:05:29.384Z,6.20
2023-06-11T17:08:01.611Z,5.47
2023-06-11T17:10:37.531Z,5.80
2023-06-11T17:13:06.495Z,6.33
2023-06-11T17:15:40.264Z,6.10
2023-06-11T17:18:17.167Z,5.50
2023-06-11T17:20:52.008Z,6.00
2023-06-11T17:23:25.887Z,5.63
2023-06-11T17:26:10.691Z,6.47
2023-06-11T17:28:42.514Z,5.10
2023-06-11T17:31:14.254Z,5.10
2023-06-11T17:33:49.623Z,5.13
2023-06-11T17:36:24.621Z,4.93
2023-06-11T17:39:03.931Z,4.80
2023-06-11T17:41:43.394Z,4.37
2023-06-11T17:44:21.168Z,5.40
2023-06-11T17:46:50.595Z,6.20
2023-06-11T17:49:21.253Z,5.57
2023-06-11T17:51:54.173Z,4.70
2023-06-11T17:54:23.264Z,5.00
2023-06-11T17:57:00.233Z,5.03
2023-06-11T17:59:40.559Z,5.03
2023-06-11T18:02:11.126Z,5.00
2023-06-11T18:04:40.920Z,4.93
2023-06-11T18:07:12.502Z,5.37
2023-06-11T18:09:42.778Z,4.93
2023-06-11T18:12:24.978Z,5.43
2023-06-11T18:14:57.766Z,5.17
2023-06-11T18:17:28.200Z,5.00
2023-06-11T18:19:59.130Z,5.30
2023-06-11T18:22:30.805Z,5.07
2023-06-11T18:25:00.258Z,6.20
2023-06-11T18:27:50.882Z,5.20
2023-06-11T18:30:24.635Z,5.30
2023-06-11T18:32:57.772Z,5.03
2023-06-11T18:35:27.906Z,5.20
2023-06-11T18:37:58.177Z,5.53
2023-06-11T18:40:31.736Z,5.13
2023-06-11T18:43:07.106Z,5.50
2023-06-11T18:48:21.433Z,5.40
2023-06-11T18:50:52.477Z,5.03
2023-06-11T18:53:25.594Z,5.17
2023-06-11T18:55:54.984Z,5.30
2023-06-11T18:58:25.302Z,5.00
2023-06-11T19:00:58.345Z,5.57
2023-06-11T19:03:39.310Z,4.90
2023-06-11T19:06:13.055Z,4.70
2023-06-11T19:09:01.730Z,4.93
2023-06-11T19:11:31.367Z,4.77
2023-06-11T19:14:14.348Z,4.70
2023-06-11T19:16:50.045Z,5.57
2023-06-11T19:19:20.096Z,4.87
2023-06-11T19:21:57.519Z,4.67
2023-06-11T19:24:32.812Z,5.13
2023-06-11T19:27:05.363Z,4.33
2023-06-11T19:29:41.950Z,5.17
2023-06-11T19:32:20.139Z,5.30
2023-06-11T19:34:49.118Z,5.00
2023-06-11T19:37:22.363Z,5.40
2023-06-11T19:39:56.668Z,5.30
2023-06-11T19:42:34.243Z,4.90
2023-06-11T19:45:16.950Z,5.30
2023-06-11T19:47:49.647Z,5.13
2023-06-11T19:50:27.609Z,4.50
2023-06-11T19:53:10.221Z,5.23
2023-06-11T19:55:42.192Z,4.87
2023-06-11T19:58:12.322Z,5.20
2023-06-11T20:00:43.524Z,5.30
2023-06-11T20:03:20.940Z,5.30
2023-06-11T20:05:50.227Z,4.97
2023-06-11T20:08:35.600Z,5.40
2023-06-11T20:11:10.313Z,4.83
2023-06-11T20:13:50.268Z,5.17
2023-06-11T20:16:25.281Z,5.47
2023-06-11T20:19:07.966Z,4.97
2023-06-11T20:21:45.752Z,6.10
2023-06-11T20:24:26.755Z,5.10
2023-06-11T20:27:00.887Z,5.87
2023-06-11T20:29:30.968Z,5.20
2023-06-11T20:32:11.099Z,4.90
2023-06-11T20:34:42.431Z,5.40
2023-06-11T20:37:21.326Z,5.50
2023-06-11T20:39:58.662Z,5.30
2023-06-11T20:42:31.145Z,5.50
2023-06-11T20:45:03.715Z,5.43
2023-06-11T20:47:41.815Z,6.23
2023-06-11T20:50:12.129Z,5.40
2023-06-11T20:52:42.133Z,5.30
2023-06-11T20:55:12.177Z,5.30
2023-06-11T20:57:41.450Z,5.20
2023-06-11T21:00:12.248Z,5.27
2023-06-11T21:02:45.728Z,5.70
2023-06-11T21:05:20.506Z,5.80
2023-06-11T21:07:52.314Z,4.80
2023-06-11T21:10:22.366Z,5.50
2023-06-11T21:12:55.895Z,5.43
2023-06-11T21:15:27.451Z,5.23
2023-06-11T21:18:06.096Z,5.70
2023-06-11T21:20:39.897Z,5.23
2023-06-11T21:23:16.246Z,5.93
2023-06-11T21:25:48.650Z,5.37
2023-06-11T21:28:24.366Z,5.10
2023-06-11T21:30:54.170Z,5.10
2023-06-11T21:33:29.799Z,5.33
2023-06-11T21:36:01.486Z,5.00
2023-06-11T21:38:30.969Z,5.87
2023-06-11T21:41:01.881Z,5.60
2023-06-11T21:43:31.280Z,5.50
2023-06-11T21:46:03.051Z,4.87
2023-06-11T21:48:42.750Z,5.67
2023-06-11T21:51:12.637Z,5.47
2023-06-11T21:53:43.356Z,4.80
2023-06-11T21:56:14.724Z,4.90
2023-06-11T21:58:52.430Z,5.33
2023-06-11T22:01:23.346Z,5.90
2023-06-11T22:04:11.450Z,4.93
2023-06-11T22:06:46.645Z,5.07
2023-06-11T22:09:27.474Z,4.70
2023-06-11T22:11:58.741Z,5.00
2023-06-11T22:14:28.195Z,5.30
2023-06-11T22:16:58.910Z,6.10
2023-06-11T22:19:43.125Z,5.80
2023-06-11T22:22:14.401Z,5.10
2023-06-11T22:24:44.138Z,5.00
2023-06-11T22:27:13.651Z,5.20
2023-06-11T22:29:52.220Z,4.87
2023-06-11T22:32:31.253Z,5.13
2023-06-11T22:35:17.527Z,5.83
2023-06-11T22:37:52.402Z,5.67
2023-06-11T22:40:28.922Z,5.03
2023-06-11T22:42:58.216Z,4.83
2023-06-11T22:45:35.079Z,4.80
2023-06-11T22:48:05.627Z,5.00
2023-06-11T22:50:50.178Z,6.13
2023-06-11T22:53:20.896Z,5.60
2023-06-11T22:55:50.614Z,5.50
2023-06-11T22:58:20.689Z,5.03
2023-06-11T23:00:58.727Z,5.33
2023-06-11T23:03:27.747Z,5.13
2023-06-11T23:06:05.918Z,5.63
2023-06-11T23:08:36.361Z,5.57
2023-06-11T23:11:15.031Z,5.30
2023-06-11T23:13:46.800Z,5.20
2023-06-11T23:16:21.327Z,5.40
2023-06-11T23:18:56.656Z,5.43
2023-06-11T23:21:41.138Z,5.13
2023-06-11T23:24:11.650Z,5.10
2023-06-11T23:26:45.315Z,5.00
2023-06-11T23:29:29.108Z,6.30
2023-06-11T23:32:03.427Z,5.10
2023-06-11T23:34:40.275Z,4.93
2023-06-11T23:37:10.896Z,6.13
2023-06-11T23:39:40.385Z,5.33
2023-06-11T23:42:10.026Z,5.10
2023-06-11T23:44:41.781Z,5.27
2023-06-11T23:47:22.862Z,5.83
2023-06-11T23:49:56.870Z,5.30
2023-06-11T23:52:26.882Z,5.50
2023-06-11T23:54:57.715Z,5.50
2023-06-11T23:57:35.159Z,5.40
